createdAt,value
2022-08-12T00:00:39.072Z,22.16
2022-08-12T00:02:03.401Z,22.16
2022-08-12T00:02:39.256Z,22.16
2022-08-12T00:03:39.125Z,22.16
2022-08-12T00:04:39.086Z,22.16
2022-08-12T00:05:39.097Z,22.16
2022-08-12T00:06:39.080Z,22.16
2022-08-12T00:07:39.081Z,22.16
2022-08-12T00:08:39.104Z,22.16
2022-08-12T00:09:39.091Z,22.16
2022-08-12T00:10:39.078Z,22.16
2022-08-12T00:11:39.078Z,22.16
2022-08-12T00:12:39.208Z,22.16
2022-08-12T00:13:39.093Z,22.16
2022-08-12T00:14:39.075Z,22.16
2022-08-12T00:15:39.092Z,22.16
2022-08-12T00:16:39.078Z,22.16
2022-08-12T00:17:39.081Z,22.16
2022-08-12T00:18:39.095Z,22.16
2022-08-12T00:19:39.081Z,22.16
2022-08-12T00:20:39.101Z,22.16
2022-08-12T00:21:39.084Z,22.16
2022-08-12T00:22:39.451Z,22.16
2022-08-12T00:23:39.108Z,22.16
2022-08-12T00:24:39.099Z,22.16
2022-08-12T00:26:05.701Z,22.16
2022-08-12T00:26:39.096Z,22.16
2022-08-12T00:27:43.913Z,22.16
2022-08-12T00:28:39.110Z,22.16
2022-08-12T00:29:39.094Z,22.16
2022-08-12T00:30:39.075Z,22.16
2022-08-12T00:31:39.085Z,22.16
2022-08-12T00:32:39.094Z,22.16
2022-08-12T00:33:51.776Z,22.16
2022-08-12T00:34:39.096Z,22.16
2022-08-12T00:35:39.103Z,22.16
2022-08-12T00:36:39.088Z,22.16
2022-08-12T00:37:39.092Z,22.16
2022-08-12T00:38:39.096Z,22.16
2022-08-12T00:39:39.188Z,22.16
2022-08-12T00:40:39.093Z,22.16
2022-08-12T00:41:39.096Z,22.16
2022-08-12T00:42:39.301Z,22.16
2022-08-12T00:43:39.102Z,22.16
2022-08-12T00:44:39.092Z,22.16
2022-08-12T00:45:39.090Z,22.16
2022-08-12T00:46:39.085Z,22.16
2022-08-12T00:47:39.079Z,22.16
2022-08-12T00:48:39.113Z,22.16
2022-08-12T00:49:39.079Z,22.16
2022-08-12T00:50:39.100Z,22.16
2022-08-12T00:51:39.094Z,22.16
2022-08-12T00:52:39.219Z,22.16
2022-08-12T00:53:39.106Z,22.16
2022-08-12T00:54:39.075Z,22.16
2022-08-12T00:55:39.082Z,22.16
2022-08-12T00:56:39.094Z,22.16
2022-08-12T00:57:39.079Z,22.16
2022-08-12T00:58:39.097Z,22.16
2022-08-12T00:59:39.090Z,22.16
2022-08-12T01:00:39.080Z,22.16
2022-08-12T01:02:11.364Z,22.16
2022-08-12T01:02:39.251Z,22.16
2022-08-12T01:03:39.092Z,22.16
2022-08-12T01:04:39.079Z,22.16
2022-08-12T01:05:39.106Z,22.16
2022-08-12T01:06:39.079Z,22.16
2022-08-12T01:07:39.090Z,22.16
2022-08-12T01:08:39.095Z,22.16
2022-08-12T01:09:39.073Z,22.16
2022-08-12T01:10:39.084Z,22.16
2022-08-12T01:11:39.090Z,22.16
2022-08-12T01:12:39.249Z,22.16
2022-08-12T01:13:39.104Z,22.16
2022-08-12T01:14:39.094Z,22.16
2022-08-12T01:15:39.089Z,22.16
2022-08-12T01:16:39.085Z,22.16
2022-08-12T01:17:39.081Z,22.16
2022-08-12T01:18:39.105Z,22.16
2022-08-12T01:19:39.072Z,22.16
2022-08-12T01:20:39.110Z,22.16
2022-08-12T01:21:39.083Z,22.16
2022-08-12T01:22:39.348Z,22.16
2022-08-12T01:23:39.093Z,22.16
2022-08-12T01:24:39.082Z,22.16
2022-08-12T01:25:41.560Z,22.16
2022-08-12T01:26:39.084Z,22.16
2022-08-12T01:27:39.088Z,22.16
2022-08-12T01:28:39.097Z,22.16
2022-08-12T01:32:39.278Z,22.16
2022-08-12T01:33:39.119Z,22.16
2022-08-12T01:34:39.195Z,22.16
2022-08-12T01:35:39.098Z,22.16
2022-08-12T01:36:39.087Z,22.16
2022-08-12T01:37:39.200Z,22.16
2022-08-12T01:38:39.214Z,22.16
2022-08-12T01:39:39.161Z,22.16
2022-08-12T01:40:42.488Z,22.16
2022-08-12T01:41:39.106Z,22.16
2022-08-12T01:42:39.289Z,22.16
2022-08-12T01:43:39.094Z,22.16
2022-08-12T01:44:39.100Z,22.16
2022-08-12T01:45:40.679Z,22.16
2022-08-12T01:46:39.080Z,22.16
2022-08-12T01:47:39.087Z,22.16
2022-08-12T01:48:39.092Z,22.16
2022-08-12T01:49:39.092Z,22.16
2022-08-12T01:50:39.099Z,22.16
2022-08-12T01:52:16.390Z,22.16
2022-08-12T01:52:39.309Z,22.16
2022-08-12T01:53:50.302Z,22.16
2022-08-12T01:54:39.089Z,22.16
2022-08-12T01:55:39.096Z,22.16
2022-08-12T01:56:39.078Z,22.16
2022-08-12T01:57:58.702Z,22.16
2022-08-12T01:58:39.097Z,22.16
2022-08-12T01:59:39.090Z,22.16
2022-08-12T02:00:43.460Z,22.16
2022-08-12T02:01:39.135Z,22.16
2022-08-12T02:02:39.330Z,22.16
2022-08-12T02:03:39.086Z,22.16
2022-08-12T02:04:39.073Z,22.16
2022-08-12T02:05:39.115Z,22.16
2022-08-12T02:06:39.090Z,22.16
2022-08-12T02:07:39.084Z,22.16
2022-08-12T02:08:39.108Z,22.16
2022-08-12T02:09:39.081Z,22.16
2022-08-12T02:10:50.875Z,22.16
2022-08-12T02:11:39.090Z,22.16
2022-08-12T02:12:39.166Z,22.16
2022-08-12T02:13:48.605Z,22.16
2022-08-12T02:14:39.087Z,22.16
2022-08-12T02:15:39.089Z,22.16
2022-08-12T02:16:39.089Z,22.16
2022-08-12T02:17:55.652Z,22.16
2022-08-12T02:18:39.107Z,22.16
2022-08-12T02:19:39.086Z,22.16
2022-08-12T02:20:51.741Z,22.16
2022-08-12T02:21:39.095Z,22.16
2022-08-12T02:22:39.422Z,22.16
2022-08-12T02:23:39.094Z,22.16
2022-08-12T02:24:39.084Z,22.16
2022-08-12T02:25:39.085Z,22.16
2022-08-12T02:26:39.094Z,22.16
2022-08-12T02:27:39.099Z,22.16
2022-08-12T02:28:39.109Z,22.16
2022-08-12T02:29:39.087Z,22.16
2022-08-12T02:30:42.446Z,22.16
2022-08-12T02:31:39.097Z,22.16
2022-08-12T02:32:39.234Z,22.16
2022-08-12T02:33:39.100Z,22.16
2022-08-12T02:34:39.090Z,22.16
2022-08-12T02:35:39.101Z,22.16
2022-08-12T02:36:39.090Z,22.16
2022-08-12T02:37:39.091Z,22.16
2022-08-12T02:38:39.107Z,22.16
2022-08-12T02:39:39.109Z,22.16
2022-08-12T02:40:39.081Z,22.16
2022-08-12T02:41:39.094Z,22.16
2022-08-12T02:42:39.263Z,22.16
2022-08-12T02:43:39.107Z,22.16
2022-08-12T02:44:39.076Z,22.16
2022-08-12T02:45:39.092Z,22.16
2022-08-12T02:46:39.095Z,22.16
2022-08-12T02:47:59.105Z,22.16
2022-08-12T02:48:39.093Z,22.16
2022-08-12T02:49:39.074Z,22.16
2022-08-12T02:50:39.090Z,22.16
2022-08-12T02:51:39.085Z,22.16
2022-08-12T02:52:39.139Z,22.16
2022-08-12T02:53:39.112Z,22.16
2022-08-12T02:54:39.077Z,22.16
2022-08-12T02:55:39.079Z,22.16
2022-08-12T02:56:39.091Z,22.16
2022-08-12T02:57:39.083Z,22.16
2022-08-12T02:58:41.221Z,22.16
2022-08-12T02:59:39.081Z,22.16
2022-08-12T03:00:39.131Z,22.16
2022-08-12T03:01:42.553Z,22.16
2022-08-12T03:02:39.240Z,22.16
2022-08-12T03:03:39.102Z,22.16
2022-08-12T03:04:43.097Z,22.16
2022-08-12T03:05:44.337Z,22.16
2022-08-12T03:06:39.092Z,22.16
2022-08-12T03:07:55.879Z,22.16
2022-08-12T03:08:39.103Z,22.16
2022-08-12T03:09:54.318Z,22.16
2022-08-12T03:10:39.098Z,22.16
2022-08-12T03:11:42.642Z,22.16
2022-08-12T03:12:48.805Z,22.16
2022-08-12T03:13:39.093Z,22.16
2022-08-12T03:14:39.091Z,22.16
2022-08-12T03:15:39.077Z,22.16
2022-08-12T03:16:39.080Z,22.16
2022-08-12T03:17:39.087Z,22.16
2022-08-12T03:18:39.088Z,22.16
2022-08-12T03:20:10.386Z,22.16
2022-08-12T03:20:39.110Z,22.16
2022-08-12T03:21:52.687Z,22.16
2022-08-12T03:22:39.238Z,22.16
2022-08-12T03:23:39.100Z,22.16
2022-08-12T03:24:39.092Z,22.16
2022-08-12T03:25:39.082Z,22.16
2022-08-12T03:26:39.092Z,22.16
2022-08-12T03:27:39.090Z,22.16
2022-08-12T03:28:39.116Z,22.16
2022-08-12T03:29:49.720Z,22.16
2022-08-12T03:30:39.101Z,22.16
2022-08-12T03:31:39.094Z,22.16
2022-08-12T03:32:39.091Z,22.16
2022-08-12T03:33:39.110Z,22.16
2022-08-12T03:34:39.092Z,22.16
2022-08-12T03:35:41.378Z,22.16
2022-08-12T03:36:39.094Z,22.16
2022-08-12T03:37:39.094Z,22.16
2022-08-12T03:38:39.091Z,22.16
2022-08-12T03:39:39.130Z,22.16
2022-08-12T03:40:39.075Z,22.16
2022-08-12T03:41:39.082Z,22.16
2022-08-12T03:42:39.335Z,22.16
2022-08-12T03:43:39.088Z,22.16
2022-08-12T03:44:39.101Z,22.16
2022-08-12T03:45:52.177Z,22.16
2022-08-12T03:46:39.090Z,22.16
2022-08-12T03:47:39.077Z,22.16
2022-08-12T03:48:39.111Z,22.16
2022-08-12T03:49:39.087Z,22.16
2022-08-12T03:50:39.090Z,22.16
2022-08-12T03:51:39.079Z,22.16
2022-08-12T03:52:39.286Z,22.16
2022-08-12T03:53:39.090Z,22.16
2022-08-12T03:54:42.517Z,22.16
2022-08-12T03:55:39.071Z,22.16
2022-08-12T03:56:39.075Z,22.16
2022-08-12T03:57:39.069Z,22.16
2022-08-12T03:58:39.085Z,22.16
2022-08-12T03:59:39.078Z,22.16
2022-08-12T04:00:39.137Z,22.16
2022-08-12T04:01:40.915Z,22.16
2022-08-12T04:02:39.162Z,22.16
2022-08-12T04:03:39.105Z,22.16
2022-08-12T04:04:39.069Z,22.16
2022-08-12T04:05:56.053Z,22.16
2022-08-12T04:06:39.135Z,22.16
2022-08-12T04:07:39.075Z,22.16
2022-08-12T04:08:39.113Z,22.16
2022-08-12T04:09:39.076Z,22.16
2022-08-12T04:10:39.094Z,22.16
2022-08-12T04:11:46.941Z,22.16
2022-08-12T04:12:39.078Z,22.16
2022-08-12T04:13:39.113Z,22.16
2022-08-12T04:14:39.080Z,22.16
2022-08-12T04:15:39.097Z,22.16
2022-08-12T04:16:39.092Z,22.16
2022-08-12T04:17:39.088Z,22.16
2022-08-12T04:18:39.107Z,22.16
2022-08-12T04:19:39.081Z,22.16
2022-08-12T04:20:39.193Z,22.16
2022-08-12T04:21:43.979Z,22.16
2022-08-12T04:22:39.256Z,22.16
2022-08-12T04:23:39.086Z,22.16
2022-08-12T04:24:40.884Z,22.16
2022-08-12T04:25:39.086Z,22.16
2022-08-12T04:26:39.083Z,22.16
2022-08-12T04:27:39.072Z,22.16
2022-08-12T04:28:39.104Z,22.16
2022-08-12T04:30:22.393Z,22.16
2022-08-12T04:30:39.090Z,22.16
2022-08-12T04:31:39.103Z,22.16
2022-08-12T04:32:44.118Z,22.16
2022-08-12T04:33:39.105Z,22.16
2022-08-12T04:34:39.077Z,22.16
2022-08-12T04:35:39.098Z,22.16
2022-08-12T04:36:39.093Z,22.16
2022-08-12T04:37:59.400Z,22.16
2022-08-12T04:38:39.108Z,22.16
2022-08-12T04:39:39.102Z,22.16
2022-08-12T04:40:39.079Z,22.16
2022-08-12T04:41:39.086Z,22.16
2022-08-12T04:42:39.300Z,22.16
2022-08-12T04:44:00.423Z,22.16
2022-08-12T04:44:39.073Z,22.16
2022-08-12T04:45:39.074Z,22.16
2022-08-12T04:46:39.070Z,22.16
2022-08-12T04:47:39.077Z,22.16
2022-08-12T04:48:39.090Z,22.16
2022-08-12T04:49:39.070Z,22.16
2022-08-12T04:50:39.069Z,22.16
2022-08-12T04:51:39.093Z,22.16
2022-08-12T04:52:39.071Z,22.16
2022-08-12T04:53:39.095Z,22.16
2022-08-12T04:57:39.088Z,22.16
2022-08-12T04:58:39.098Z,22.16
2022-08-12T04:59:47.030Z,22.16
2022-08-12T05:00:39.097Z,22.16
2022-08-12T05:01:39.073Z,22.16
2022-08-12T05:02:39.242Z,22.16
2022-08-12T05:03:46.312Z,22.16
2022-08-12T05:04:39.069Z,22.16
2022-08-12T05:05:39.084Z,22.16
2022-08-12T05:06:39.107Z,22.16
2022-08-12T05:07:54.069Z,22.16
2022-08-12T05:08:39.095Z,22.16
2022-08-12T05:09:58.839Z,22.16
2022-08-12T05:10:39.072Z,22.16
2022-08-12T05:11:39.087Z,22.16
2022-08-12T05:12:39.449Z,22.16
2022-08-12T05:13:39.094Z,22.16
2022-08-12T05:14:39.079Z,22.16
2022-08-12T05:16:03.692Z,22.16
2022-08-12T05:16:39.085Z,22.16
2022-08-12T05:17:39.084Z,22.16
2022-08-12T05:18:39.675Z,22.16
2022-08-12T05:19:39.089Z,22.16
2022-08-12T05:20:39.067Z,22.16
2022-08-12T05:21:39.083Z,22.16
2022-08-12T05:22:39.370Z,22.16
2022-08-12T05:23:39.095Z,22.16
2022-08-12T05:24:39.086Z,22.16
2022-08-12T05:25:39.078Z,22.16
2022-08-12T05:26:39.084Z,22.16
2022-08-12T05:27:39.075Z,22.16
2022-08-12T05:28:39.091Z,22.16
2022-08-12T05:30:05.670Z,22.16
2022-08-12T05:30:39.067Z,22.16
2022-08-12T05:31:47.505Z,22.16
2022-08-12T05:32:39.226Z,22.16
2022-08-12T05:33:39.085Z,22.16
2022-08-12T05:34:39.063Z,22.16
2022-08-12T05:35:39.088Z,22.16
2022-08-12T05:36:39.099Z,22.16
2022-08-12T05:37:39.080Z,22.16
2022-08-12T05:38:39.088Z,22.16
2022-08-12T05:39:39.110Z,22.16
2022-08-12T05:40:39.073Z,22.16
2022-08-12T05:41:39.066Z,22.16
2022-08-12T05:42:39.082Z,22.16
2022-08-12T05:43:39.098Z,22.16
2022-08-12T05:44:39.065Z,22.16
2022-08-12T05:45:44.291Z,22.16
2022-08-12T05:46:39.087Z,22.16
2022-08-12T05:47:53.457Z,22.16
2022-08-12T05:48:39.094Z,22.16
2022-08-12T05:49:39.084Z,22.16
2022-08-12T05:50:39.076Z,15.32
2022-08-12T05:51:40.430Z,15.39
2022-08-12T05:52:39.229Z,15.39
2022-08-12T05:53:39.086Z,15.39
2022-08-12T05:54:56.576Z,15.78
2022-08-12T05:55:39.091Z,15.91
2022-08-12T05:56:39.076Z,15.91
2022-08-12T05:57:39.084Z,15.86
2022-08-12T05:58:39.091Z,15.66
2022-08-12T05:59:39.082Z,15.58
2022-08-12T06:00:39.092Z,15.58
2022-08-12T06:02:10.330Z,15.44
2022-08-12T06:02:39.199Z,15.44
2022-08-12T06:03:39.184Z,15.56
2022-08-12T06:04:39.078Z,15.25
2022-08-12T06:05:43.103Z,15.25
2022-08-12T06:06:39.705Z,15.25
2022-08-12T06:08:01.555Z,15.38
2022-08-12T06:08:39.101Z,15.3
2022-08-12T06:09:39.078Z,15.3
2022-08-12T06:10:39.084Z,15.08
2022-08-12T06:11:39.088Z,15.16
2022-08-12T06:12:39.239Z,15.33
2022-08-12T06:13:54.319Z,15.57
2022-08-12T06:15:44.434Z,15.73
2022-08-12T06:16:43.120Z,15.8
2022-08-12T06:17:43.104Z,15.96
2022-08-12T06:18:43.133Z,16.16
2022-08-12T06:20:27.695Z,16.31
2022-08-12T06:20:43.129Z,16.44
2022-08-12T06:21:43.111Z,16.37
2022-08-12T06:22:43.093Z,16.41
2022-08-12T06:23:43.114Z,16.37
2022-08-12T06:24:43.104Z,16.12
2022-08-12T06:25:43.097Z,16.17
2022-08-12T06:26:43.085Z,16.24
2022-08-12T06:27:43.105Z,16.24
2022-08-12T06:28:43.116Z,16.18
2022-08-12T06:30:09.913Z,16.26
2022-08-12T06:30:43.097Z,16.5
2022-08-12T06:31:43.087Z,16.67
2022-08-12T06:32:51.736Z,16.8
2022-08-12T06:33:55.653Z,16.84
2022-08-12T06:35:26.916Z,16.84
2022-08-12T06:35:48.209Z,16.99
2022-08-12T06:36:43.221Z,16.81
2022-08-12T06:37:43.092Z,16.57
2022-08-12T06:38:43.113Z,16.79
2022-08-12T06:39:43.120Z,16.92
2022-08-12T06:40:43.090Z,16.99
2022-08-12T06:42:05.139Z,17.03
2022-08-12T06:42:43.629Z,17.09
2022-08-12T06:44:04.406Z,17.11
2022-08-12T06:44:43.101Z,17.47
2022-08-12T06:45:45.804Z,17.12
2022-08-12T06:46:43.119Z,16.79
2022-08-12T06:47:43.085Z,16.79
2022-08-12T06:48:43.110Z,16.71
2022-08-12T06:49:43.094Z,16.89
2022-08-12T06:50:43.084Z,16.88
2022-08-12T06:51:54.491Z,16.81
2022-08-12T06:52:43.079Z,17.11
2022-08-12T06:53:43.123Z,17.41
2022-08-12T06:54:43.079Z,17.72
2022-08-12T06:55:57.922Z,17.61
2022-08-12T06:57:04.237Z,17.53
2022-08-12T06:58:05.463Z,17.7
2022-08-12T06:58:43.121Z,17.75
2022-08-12T06:59:43.074Z,17.77
2022-08-12T07:00:43.113Z,18.12
2022-08-12T07:01:50.786Z,18.19
2022-08-12T07:02:43.264Z,18.53
2022-08-12T07:03:43.097Z,18.61
2022-08-12T07:04:43.096Z,18.62
2022-08-12T07:05:43.105Z,19.58
2022-08-12T07:06:43.092Z,19.34
2022-08-12T07:07:43.078Z,19.17
2022-08-12T07:08:43.098Z,18.94
2022-08-12T07:10:01.371Z,19.28
2022-08-12T07:10:43.091Z,19.33
2022-08-12T07:11:43.096Z,19.29
2022-08-12T07:12:43.416Z,19.17
2022-08-12T07:14:11.899Z,18.94
2022-08-12T07:14:47.006Z,18.6
2022-08-12T07:15:43.088Z,18.45
2022-08-12T07:16:43.085Z,18.73
2022-08-12T07:17:43.096Z,18.73
2022-08-12T07:18:43.106Z,18.73
2022-08-12T07:19:45.440Z,18.94
2022-08-12T07:20:51.835Z,18.89
2022-08-12T07:22:02.346Z,19.62
2022-08-12T07:22:43.092Z,19.7
2022-08-12T07:23:43.106Z,19.6
2022-08-12T07:24:43.089Z,19
2022-08-12T07:25:43.089Z,19
2022-08-12T07:26:44.362Z,18.86
2022-08-12T07:27:43.082Z,18.47
2022-08-12T07:28:43.126Z,18.61
2022-08-12T07:30:03.613Z,19.04
2022-08-12T07:30:43.080Z,18.36
2022-08-12T07:31:43.094Z,18.77
2022-08-12T07:32:43.300Z,18.61
2022-08-12T07:33:43.106Z,19.17
2022-08-12T07:34:43.089Z,19.22
2022-08-12T07:35:43.081Z,19.38
2022-08-12T07:36:43.094Z,19.31
2022-08-12T07:37:43.085Z,19.2
2022-08-12T07:38:43.091Z,19.1
2022-08-12T07:39:51.325Z,19.33
2022-08-12T07:40:43.093Z,19.53
2022-08-12T07:41:43.089Z,19.47
2022-08-12T07:42:43.082Z,19.39
2022-08-12T07:43:43.101Z,19.13
2022-08-12T07:44:43.077Z,19.49
2022-08-12T07:45:43.075Z,19.75
2022-08-12T07:46:43.083Z,19.75
2022-08-12T07:47:43.078Z,19.51
2022-08-12T07:48:43.093Z,19.51
2022-08-12T07:50:05.289Z,19.8
2022-08-12T07:50:43.102Z,19.98
2022-08-12T07:51:43.120Z,19.98
2022-08-12T07:52:43.259Z,20.26
2022-08-12T07:53:47.766Z,20.36
2022-08-12T07:54:43.085Z,20.4
2022-08-12T07:55:43.085Z,20.4
2022-08-12T07:56:43.093Z,19.88
2022-08-12T07:57:43.077Z,20.46
2022-08-12T07:58:47.015Z,20.2
2022-08-12T07:59:43.074Z,20.23
2022-08-12T08:00:43.090Z,20.23
2022-08-12T08:01:43.164Z,20.15
2022-08-12T08:02:43.083Z,20.36
2022-08-12T08:03:47.519Z,20.47
2022-08-12T08:04:43.083Z,20.29
2022-08-12T08:05:43.089Z,20.29
2022-08-12T08:06:43.107Z,20.29
2022-08-12T08:07:43.094Z,20.22
2022-08-12T08:08:43.099Z,20.18
2022-08-12T08:09:43.089Z,20.01
2022-08-12T08:10:43.089Z,20.17
2022-08-12T08:11:43.093Z,19.94
2022-08-12T08:12:43.089Z,19.94
2022-08-12T08:13:43.101Z,19.97
2022-08-12T08:14:43.095Z,19.91
2022-08-12T08:16:02.579Z,19.88
2022-08-12T08:16:43.091Z,19.89
2022-08-12T08:17:43.073Z,19.8
2022-08-12T08:18:43.124Z,19.8
2022-08-12T08:20:02.069Z,19.99
2022-08-12T08:20:43.089Z,20.08
2022-08-12T08:21:43.089Z,20.14
2022-08-12T08:22:43.290Z,20.36
2022-08-12T08:23:43.106Z,20.67
2022-08-12T08:24:43.090Z,20.75
2022-08-12T08:25:43.076Z,20.75
2022-08-12T08:26:43.082Z,20.76
2022-08-12T08:27:43.093Z,20.76
2022-08-12T08:28:43.102Z,21.05
2022-08-12T08:29:43.088Z,21.22
2022-08-12T08:30:43.094Z,21.41
2022-08-12T08:31:45.417Z,21.46
2022-08-12T08:32:43.075Z,21.24
2022-08-12T08:34:04.270Z,21.24
2022-08-12T08:34:53.707Z,20.8
2022-08-12T08:35:46.872Z,21.29
2022-08-12T08:36:43.094Z,21.42
2022-08-12T08:39:04.088Z,21.31
2022-08-12T08:40:32.519Z,20.95
2022-08-12T08:42:15.965Z,20.79
2022-08-12T08:42:31.267Z,20.65
2022-08-12T08:43:44.733Z,20.82
2022-08-12T08:44:31.132Z,20.84
2022-08-12T08:45:31.126Z,20.79
2022-08-12T08:47:21.519Z,20.85
2022-08-12T08:48:19.626Z,20.83
2022-08-12T08:49:19.664Z,20.83
2022-08-12T08:50:19.624Z,20.83
2022-08-12T08:51:19.621Z,20.92
2022-08-12T08:52:39.217Z,20.8
2022-08-12T08:53:19.600Z,20.8
2022-08-12T08:54:19.662Z,20.91
2022-08-12T08:55:25.570Z,20.95
2022-08-12T08:56:19.607Z,20.95
2022-08-12T08:57:19.601Z,20.88
2022-08-12T08:58:19.600Z,21.04
2022-08-12T08:59:19.619Z,21.11
2022-08-12T09:00:19.614Z,21.11
2022-08-12T09:01:19.639Z,21.15
2022-08-12T09:02:19.634Z,21.36
2022-08-12T09:05:07.373Z,21.47
2022-08-12T09:05:08.115Z,21.57
2022-08-12T09:05:24.802Z,21.58
2022-08-12T09:06:19.620Z,21.56
2022-08-12T09:08:26.678Z,21.42
2022-08-12T09:09:19.622Z,21.59
2022-08-12T09:10:30.513Z,21.59
2022-08-12T09:12:06.615Z,21.56
2022-08-12T09:12:27.395Z,21.5
2022-08-12T09:13:23.139Z,21.46
2022-08-12T09:14:19.617Z,21.52
2022-08-12T09:15:19.614Z,21.59
2022-08-12T09:16:20.407Z,21.59
2022-08-12T09:17:21.367Z,21.59
2022-08-12T09:19:27.179Z,21.59
2022-08-12T09:20:19.651Z,21.59
2022-08-12T09:21:19.622Z,21.59
2022-08-12T09:24:00.369Z,21.59
2022-08-12T09:24:19.905Z,21.59
2022-08-12T09:25:25.700Z,21.59
2022-08-12T09:26:19.599Z,21.59
2022-08-12T09:27:19.603Z,21.59
2022-08-12T09:28:19.910Z,21.59
2022-08-12T09:29:19.623Z,21.59
2022-08-12T09:30:42.271Z,21.59
2022-08-12T09:32:06.780Z,21.59
2022-08-12T09:32:56.095Z,21.59
2022-08-12T09:34:27.448Z,21.59
2022-08-12T09:34:27.874Z,21.59
2022-08-12T09:35:22.288Z,21.59
2022-08-12T09:36:31.125Z,21.59
2022-08-12T09:37:22.505Z,21.59
2022-08-12T09:38:28.905Z,21.59
2022-08-12T09:40:05.845Z,21.59
2022-08-12T09:41:01.629Z,21.59
2022-08-12T09:42:34.014Z,21.59
2022-08-12T09:42:40.831Z,21.59
2022-08-12T09:43:20.390Z,21.59
2022-08-12T09:44:38.006Z,21.59
2022-08-12T09:45:23.591Z,21.59
2022-08-12T09:46:25.008Z,21.59
2022-08-12T09:47:19.605Z,21.59
2022-08-12T09:48:22.101Z,21.59
2022-08-12T09:49:19.613Z,21.59
2022-08-12T09:50:20.447Z,21.59
2022-08-12T09:51:22.570Z,21.59
2022-08-12T09:52:20.078Z,21.59
2022-08-12T09:53:36.261Z,21.59
2022-08-12T09:54:32.926Z,21.59
2022-08-12T09:56:06.176Z,21.59
2022-08-12T09:56:59.208Z,21.59
2022-08-12T09:58:45.829Z,21.59
2022-08-12T09:58:57.574Z,21.59
2022-08-12T10:00:16.741Z,21.59
2022-08-12T10:00:29.256Z,21.59
2022-08-12T10:01:23.258Z,21.59
2022-08-12T10:02:44.298Z,21.59
2022-08-12T10:03:31.778Z,21.59
2022-08-12T10:04:31.115Z,21.59
2022-08-12T10:06:19.627Z,21.59
2022-08-12T10:06:31.927Z,21.59
2022-08-12T10:07:40.012Z,21.59
2022-08-12T10:08:29.185Z,21.59
2022-08-12T10:09:57.137Z,21.59
2022-08-12T10:10:30.427Z,21.59
2022-08-12T10:11:29.184Z,21.59
2022-08-12T10:12:32.940Z,21.59
2022-08-12T10:13:35.710Z,21.59
2022-08-12T10:14:33.299Z,21.59
2022-08-12T10:16:02.529Z,21.59
2022-08-12T10:16:29.185Z,21.59
2022-08-12T10:17:29.197Z,21.59
2022-08-12T10:18:29.169Z,21.59
2022-08-12T10:19:36.548Z,21.59
2022-08-12T10:20:29.161Z,21.59
2022-08-12T10:21:35.534Z,21.59
2022-08-12T10:22:40.003Z,21.59
2022-08-12T10:23:39.551Z,21.59
2022-08-12T10:24:29.176Z,21.59
2022-08-12T10:26:18.891Z,21.59
2022-08-12T10:26:36.606Z,21.59
2022-08-12T10:27:39.284Z,21.59
2022-08-12T10:28:29.159Z,21.59
2022-08-12T10:30:03.737Z,21.59
2022-08-12T10:30:39.898Z,21.59
2022-08-12T10:31:29.171Z,21.59
2022-08-12T10:32:42.840Z,21.59
2022-08-12T10:33:31.655Z,21.59
2022-08-12T10:34:29.183Z,21.59
2022-08-12T10:35:29.164Z,21.59
2022-08-12T10:36:40.127Z,21.59
2022-08-12T10:38:34.468Z,21.59
2022-08-12T10:38:35.029Z,21.59
2022-08-12T10:40:00.969Z,21.59
2022-08-12T10:40:32.673Z,21.59
2022-08-12T10:41:58.521Z,21.59
2022-08-12T10:42:29.896Z,21.59
2022-08-12T10:43:29.156Z,21.59
2022-08-12T10:44:29.174Z,21.59
2022-08-12T10:45:30.367Z,21.59
2022-08-12T10:46:31.525Z,21.59
2022-08-12T10:48:07.670Z,21.59
2022-08-12T10:48:33.953Z,21.59
2022-08-12T10:50:02.280Z,21.59
2022-08-12T10:50:58.318Z,21.59
2022-08-12T10:52:03.019Z,21.59
2022-08-12T10:52:34.239Z,21.59
2022-08-12T10:53:45.422Z,21.59
2022-08-12T10:54:29.186Z,21.59
2022-08-12T10:55:29.183Z,21.59
2022-08-12T10:56:34.262Z,21.59
2022-08-12T10:58:15.701Z,21.59
2022-08-12T10:58:30.891Z,21.59
2022-08-12T11:00:29.713Z,21.59
2022-08-12T11:00:35.701Z,21.59
2022-08-12T11:04:18.657Z,21.59
2022-08-12T11:04:25.625Z,21.59
2022-08-12T11:04:26.470Z,21.59
2022-08-12T11:04:39.464Z,21.59
2022-08-12T11:07:08.650Z,21.59
2022-08-12T11:07:09.473Z,21.59
2022-08-12T11:08:36.717Z,21.59
2022-08-12T11:08:37.189Z,21.59
2022-08-12T11:09:41.719Z,21.59
2022-08-12T11:10:29.220Z,21.59
2022-08-12T11:12:36.098Z,21.59
2022-08-12T11:12:54.769Z,21.59
2022-08-12T11:13:45.802Z,21.59
2022-08-12T11:14:48.408Z,23.69
2022-08-12T11:16:02.569Z,23.72
2022-08-12T11:16:29.162Z,23.8
2022-08-12T11:17:43.481Z,23.73
2022-08-12T11:18:29.149Z,23.5
2022-08-12T11:19:29.181Z,23.44
2022-08-12T11:20:31.199Z,23.44
2022-08-12T11:21:56.570Z,23.6
2022-08-12T11:22:29.917Z,23.81
2022-08-12T11:23:37.330Z,23.98
2022-08-12T11:24:31.763Z,24.1
2022-08-12T11:25:56.598Z,24.12
2022-08-12T11:26:29.158Z,24.27
2022-08-12T11:27:29.624Z,24.48
2022-08-12T11:28:33.862Z,24.52
2022-08-12T11:30:01.484Z,24.63
2022-08-12T11:30:30.569Z,24.6
2022-08-12T11:31:29.161Z,24.85
2022-08-12T11:32:29.150Z,24.94
2022-08-12T11:34:05.620Z,24.94
2022-08-12T11:34:52.704Z,25.14
2022-08-12T11:38:34.149Z,24.89
2022-08-12T11:40:29.122Z,24.89
2022-08-12T11:41:32.130Z,25
2022-08-12T11:42:32.442Z,25
2022-08-12T11:43:30.912Z,24.73
2022-08-12T11:44:36.782Z,24.94
2022-08-12T11:45:29.141Z,24.94
2022-08-12T11:46:29.142Z,25.18
2022-08-12T11:47:29.128Z,25.3
2022-08-12T11:48:50.928Z,25.24
2022-08-12T11:49:31.283Z,25.27
2022-08-12T11:50:32.092Z,25.27
2022-08-12T11:51:29.118Z,25.25
2022-08-12T11:52:55.366Z,24.79
2022-08-12T11:53:56.347Z,24.78
2022-08-12T11:54:29.565Z,24.64
2022-08-12T11:55:29.470Z,24.69
2022-08-12T11:56:38.196Z,24.53
2022-08-12T11:58:17.186Z,24.9
2022-08-12T11:59:02.953Z,24.83
2022-08-12T12:02:02.421Z,24.57
2022-08-12T12:02:29.164Z,24.53
2022-08-12T12:03:43.655Z,24.51
2022-08-12T12:04:29.650Z,24.22
2022-08-12T12:05:41.694Z,24.07
2022-08-12T12:06:29.115Z,23.92
2022-08-12T12:08:36.095Z,24.07
2022-08-12T12:08:38.288Z,24.33
2022-08-12T12:09:29.145Z,24.33
2022-08-12T12:10:29.108Z,24.33
2022-08-12T12:11:39.130Z,24.58
2022-08-12T12:12:29.103Z,24.08
2022-08-12T12:14:07.928Z,24.08
2022-08-12T12:14:38.104Z,23.79
2022-08-12T12:15:40.670Z,23.79
2022-08-12T12:16:29.990Z,23.63
2022-08-12T12:17:38.106Z,23.59
2022-08-12T12:18:30.662Z,23.61
2022-08-12T12:19:29.089Z,23.78
2022-08-12T12:20:30.576Z,23.96
2022-08-12T12:21:47.323Z,24.09
2022-08-12T12:22:30.957Z,24.26
2022-08-12T12:23:29.544Z,24.15
2022-08-12T12:24:29.127Z,24.15
2022-08-12T12:26:06.780Z,23.95
2022-08-12T12:26:34.785Z,23.97
2022-08-12T12:28:03.772Z,23.97
2022-08-12T12:28:37.924Z,23.97
2022-08-12T12:30:18.249Z,24.14
2022-08-12T12:30:29.918Z,24.14
2022-08-12T12:32:10.898Z,23.67
2022-08-12T12:32:30.830Z,23.6
2022-08-12T12:33:46.274Z,23.64
2022-08-12T12:34:32.424Z,23.76
2022-08-12T12:36:16.724Z,23.91
2022-08-12T12:36:30.163Z,24.02
2022-08-12T12:38:03.718Z,24.06
2022-08-12T12:38:29.158Z,24.08
2022-08-12T12:39:29.213Z,24.08
2022-08-12T12:40:30.147Z,24.08
2022-08-12T12:42:42.763Z,23.69
2022-08-12T12:42:43.902Z,23.69
2022-08-12T12:43:42.831Z,23.75
2022-08-12T12:44:38.820Z,23.86
2022-08-12T12:45:32.335Z,23.95
2022-08-12T12:46:29.155Z,24.03
2022-08-12T12:47:30.314Z,24.04
2022-08-12T12:48:29.157Z,24.06
2022-08-12T12:49:29.149Z,24.14
2022-08-12T12:50:35.974Z,24.06
2022-08-12T12:51:55.122Z,23.92
2022-08-12T12:52:29.158Z,23.83
2022-08-12T12:54:05.320Z,23.74
2022-08-12T12:54:29.259Z,23.79
2022-08-12T12:55:35.635Z,23.84
2022-08-12T12:56:33.852Z,24.07
2022-08-12T12:57:58.857Z,24.31
2022-08-12T12:58:29.153Z,24.31
2022-08-12T12:59:54.972Z,24.66
2022-08-12T13:00:29.178Z,24.66
2022-08-12T13:01:31.867Z,24.7
2022-08-12T13:02:31.681Z,24.68
2022-08-12T13:03:29.151Z,24.62
2022-08-12T13:04:29.163Z,24.64
2022-08-12T13:05:29.170Z,24.62
2022-08-12T13:06:30.041Z,24.62
2022-08-12T13:07:49.365Z,24.61
2022-08-12T13:08:35.762Z,24.64
2022-08-12T13:09:29.182Z,24.45
2022-08-12T13:10:30.719Z,24.45
2022-08-12T13:11:32.780Z,24.4
2022-08-12T13:12:29.156Z,24.43
2022-08-12T13:14:08.940Z,24.46